Date,TemperatureHighF,TemperatureAvgF,TemperatureLowF,DewpointHighF,DewpointAvgF,DewpointLowF,HumidityHigh,HumidityAvg,HumidityLow,PressureMaxIn,PressureMinIn,WindSpeedMaxMPH,WindSpeedAvgMPH,GustSpeedMaxMPH,PrecipitationSumIn
2013-2-1,-3,-17,-28,-19,-27,-37,68,61,45,0.00,40.00,5,2,14,0.00
2013-2-2,6,-11,-34,-4,-25,-100,78,62,47,0.00,40.00,4,1,8,0.00
2013-2-3,6,-5,-21,-4,-13,-29,77,68,53,0.00,40.00,6,4,14,0.00
2013-2-4,9,-9,-29,-1,-17,-38,80,66,55,0.00,40.00,4,2,10,0.00
2013-2-5,15,3,-8,3,-4,-14,81,74,59,0.00,40.00,5,3,12,0.00
2013-2-6,21,8,-7,12,1,-13,84,74,55,0.00,40.00,3,2,7,0.00
2013-2-7,26,7,-1,12,2,-5,85,77,54,0.00,40.00,3,2,7,0.00
2013-2-8,30,11,-5,18,6,-11,88,78,60,0.00,40.00,4,2,9,0.00
2013-2-9,26,22,14,24,18,11,95,86,80,0.00,40.00,5,3,12,0.00
2013-2-10,28,26,24,25,24,22,95,91,84,0.00,40.00,8,4,21,0.00
2013-2-11,25,20,15,22,17,12,93,87,79,0.00,40.00,6,4,15,0.00
2013-2-12,31,18,8,25,15,4,93,85,71,0.00,40.00,5,3,11,0.00
2013-2-13,32,22,15,26,19,13,94,88,74,0.00,40.00,3,2,9,0.00
2013-2-14,25,15,9,23,9,2,94,75,55,0.00,40.00,6,4,13,0.00
2013-2-15,15,2,-9,2,-5,-15,80,72,52,0.00,40.00,6,4,15,0.00
2013-2-16,20,-4,-20,2,-13,-28,81,65,40,0.00,40.00,4,2,7,0.00
2013-2-17,24,12,-8,19,6,-14,90,79,69,0.00,40.00,5,4,14,0.00
2013-2-18,30,19,2,24,15,-4,91,83,75,0.00,40.00,8,4,22,0.00
2013-2-19,9,-3,-10,-3,-11,-17,75,67,50,0.00,40.00,8,6,19,0.00
2013-2-20,16,-4,-17,-5,-15,-24,73,61,30,0.00,40.00,4,2,13,0.00
2013-2-21,28,3,-14,3,-8,-21,77,63,28,0.00,40.00,4,2,9,0.00
2013-2-22,32,19,4,22,14,-2,92,79,65,0.00,40.00,5,2,11,0.00
2013-2-23,42,21,9,23,14,5,92,77,46,0.00,40.00,4,2,10,0.00
2013-2-24,43,17,0,21,10,-5,91,75,41,0.00,40.00,3,1,6,0.00
2013-2-25,36,22,11,25,17,8,93,83,64,0.00,40.00,4,2,9,0.00
2013-2-26,50,22,6,28,13,2,91,72,39,0.00,40.00,4,2,7,0.00
2013-2-27,34,24,10,23,17,7,90,76,63,0.00,40.00,6,4,13,0.00
2013-2-28,31,22,13,19,11,4,79,64,45,0.00,40.00,5,4,13,0.00